createdAt,value
2022-10-05T00:01:24.102Z,2.30
2022-10-05T00:02:47.757Z,2.77
2022-10-05T00:04:15.544Z,2.50
2022-10-05T00:05:38.306Z,2.47
2022-10-05T00:07:08.708Z,2.90
2022-10-05T00:08:35.633Z,2.00
2022-10-05T00:09:59.796Z,2.93
2022-10-05T00:11:22.198Z,3.03
2022-10-05T00:12:46.678Z,2.57
2022-10-05T00:14:31.815Z,2.80
2022-10-05T00:16:04.887Z,2.50
2022-10-05T00:17:29.072Z,2.90
2022-10-05T00:18:53.745Z,3.10
2022-10-05T00:20:23.477Z,2.63
2022-10-05T00:21:45.709Z,2.77
2022-10-05T00:23:13.990Z,2.63
2022-10-05T00:24:36.275Z,2.93
2022-10-05T00:26:33.135Z,2.20
2022-10-05T00:28:00.385Z,3.00
2022-10-05T00:29:23.861Z,2.37
2022-10-05T00:30:46.098Z,2.50
2022-10-05T00:32:10.736Z,3.00
2022-10-05T00:33:35.584Z,2.53
2022-10-05T00:34:57.758Z,3.27
2022-10-05T00:36:19.861Z,3.13
2022-10-05T00:37:42.566Z,2.90
2022-10-05T00:39:04.765Z,2.80
2022-10-05T00:40:40.034Z,2.70
2022-10-05T00:42:16.314Z,2.60
2022-10-05T00:43:56.978Z,3.13
2022-10-05T00:45:27.361Z,3.07
2022-10-05T00:47:11.439Z,2.70
2022-10-05T00:49:08.417Z,3.00
2022-10-05T00:51:07.184Z,2.53
2022-10-05T00:52:46.821Z,2.90
2022-10-05T00:54:38.536Z,3.07
2022-10-05T00:56:40.312Z,2.20
2022-10-05T00:58:48.888Z,3.23
2022-10-05T01:00:19.539Z,2.93
2022-10-05T01:01:55.337Z,3.10
2022-10-05T01:03:49.798Z,2.50
2022-10-05T01:05:43.012Z,3.33
2022-10-05T01:07:34.960Z,3.27
2022-10-05T01:09:05.932Z,3.20
2022-10-05T01:10:41.684Z,2.90
2022-10-05T01:12:07.528Z,3.17
2022-10-05T01:13:51.345Z,2.80
2022-10-05T01:15:27.752Z,2.63
2022-10-05T01:17:05.779Z,3.20
2022-10-05T01:18:32.992Z,3.13
2022-10-05T01:20:00.964Z,2.83
2022-10-05T01:21:32.786Z,3.07
2022-10-05T01:23:01.078Z,3.07
2022-10-05T01:24:34.316Z,2.90
2022-10-05T01:26:24.503Z,2.83
2022-10-05T01:28:01.833Z,3.03
2022-10-05T01:29:32.611Z,2.73
2022-10-05T01:31:12.403Z,3.00
2022-10-05T01:32:50.942Z,4.47
2022-10-05T01:34:25.964Z,3.10
2022-10-05T01:36:21.749Z,3.30
2022-10-05T01:38:05.194Z,2.80
2022-10-05T01:39:30.544Z,3.13
2022-10-05T01:41:28.396Z,3.17
2022-10-05T01:43:02.366Z,3.60
2022-10-05T01:44:54.361Z,4.00
2022-10-05T01:46:28.205Z,3.43
2022-10-05T01:48:00.431Z,3.50
2022-10-05T01:49:45.110Z,3.53
2022-10-05T01:51:25.391Z,3.20
2022-10-05T01:53:45.431Z,3.70
2022-10-05T01:55:20.779Z,3.63
2022-10-05T01:56:57.375Z,3.37
2022-10-05T01:58:42.215Z,4.40
2022-10-05T02:00:09.676Z,4.50
2022-10-05T02:01:41.702Z,3.70
2022-10-05T02:03:12.598Z,4.00
2022-10-05T02:05:02.780Z,4.07
2022-10-05T02:06:30.370Z,4.17
2022-10-05T02:08:08.908Z,3.40
2022-10-05T02:09:37.598Z,3.50
2022-10-05T02:11:08.399Z,4.30
2022-10-05T02:12:37.517Z,3.70
2022-10-05T02:14:07.621Z,4.27
2022-10-05T02:15:38.181Z,4.60
2022-10-05T02:17:09.903Z,5.33
2022-10-05T02:18:38.696Z,5.67
2022-10-05T02:20:06.344Z,4.53
2022-10-05T02:21:33.474Z,4.20
2022-10-05T02:23:00.931Z,4.70
2022-10-05T02:24:37.647Z,3.73
2022-10-05T02:26:01.871Z,4.07
2022-10-05T02:27:36.411Z,4.60
2022-10-05T02:29:02.354Z,4.73
2022-10-05T02:30:24.635Z,4.33
2022-10-05T02:31:52.690Z,4.93
2022-10-05T02:33:34.234Z,4.90
2022-10-05T02:35:04.319Z,4.77
2022-10-05T02:36:33.318Z,4.10
2022-10-05T02:38:23.982Z,4.13
2022-10-05T02:40:16.986Z,5.30
2022-10-05T02:41:51.256Z,4.80
2022-10-05T02:43:56.828Z,3.57
2022-10-05T02:46:01.761Z,3.13
2022-10-05T02:47:42.303Z,4.30
2022-10-05T02:49:24.204Z,3.20
2022-10-05T02:50:59.473Z,3.50
2022-10-05T02:52:40.283Z,3.40
2022-10-05T02:54:19.520Z,3.13
2022-10-05T02:55:47.659Z,4.07
2022-10-05T02:57:31.532Z,4.30
2022-10-05T02:59:06.766Z,3.30
2022-10-05T03:00:34.969Z,4.37
2022-10-05T03:02:20.269Z,3.70
2022-10-05T03:03:49.387Z,3.50
2022-10-05T03:05:34.133Z,3.63
2022-10-05T03:07:34.028Z,3.60
2022-10-05T03:09:06.539Z,3.73
2022-10-05T03:10:46.119Z,3.40
2022-10-05T03:12:25.981Z,3.90
2022-10-05T03:14:39.522Z,3.60
2022-10-05T03:16:29.015Z,3.90
2022-10-05T03:18:06.530Z,4.00
2022-10-05T03:19:46.421Z,3.30
2022-10-05T03:21:44.263Z,4.40
2022-10-05T03:23:11.991Z,4.03
2022-10-05T03:25:03.544Z,3.30
2022-10-05T03:26:44.528Z,4.57
2022-10-05T03:28:30.958Z,4.10
2022-10-05T03:30:08.722Z,3.57
2022-10-05T03:32:00.531Z,3.50
2022-10-05T03:33:25.494Z,3.80
2022-10-05T03:35:05.793Z,4.70
2022-10-05T03:36:36.727Z,3.67
2022-10-05T03:38:17.655Z,3.20
2022-10-05T03:39:47.049Z,3.80
2022-10-05T03:41:29.251Z,3.03
2022-10-05T03:43:19.239Z,3.47
2022-10-05T03:44:49.539Z,3.53
2022-10-05T03:46:35.361Z,3.77
2022-10-05T03:48:15.745Z,3.83
2022-10-05T03:50:10.167Z,4.30
2022-10-05T03:51:39.638Z,3.63
2022-10-05T03:53:10.946Z,4.47
2022-10-05T03:54:50.561Z,4.47
2022-10-05T03:56:36.291Z,4.20
2022-10-05T03:58:03.036Z,4.50
2022-10-05T03:59:39.680Z,4.37
2022-10-05T04:01:16.109Z,4.33
2022-10-05T04:02:45.873Z,4.27
2022-10-05T04:04:14.038Z,3.93
2022-10-05T04:05:44.652Z,4.20
2022-10-05T04:07:15.158Z,4.30
2022-10-05T04:08:56.842Z,4.10
2022-10-05T04:10:31.384Z,5.80
2022-10-05T04:12:03.161Z,4.57
2022-10-05T04:13:37.702Z,3.97
2022-10-05T04:15:08.469Z,4.10
2022-10-05T04:16:43.754Z,3.90
2022-10-05T04:18:16.727Z,3.70
2022-10-05T04:20:01.269Z,4.03
2022-10-05T04:21:34.812Z,3.60
2022-10-05T04:23:04.511Z,4.07
2022-10-05T04:24:44.678Z,3.93
2022-10-05T04:26:13.018Z,5.03
2022-10-05T04:27:40.368Z,4.10
2022-10-05T04:29:15.162Z,4.23
2022-10-05T04:30:41.791Z,3.90
2022-10-05T04:32:16.198Z,4.30
2022-10-05T04:33:38.557Z,4.10
2022-10-05T04:35:41.159Z,3.47
2022-10-05T04:37:09.138Z,3.97
2022-10-05T04:39:01.843Z,3.80
2022-10-05T04:40:47.598Z,3.40
2022-10-05T04:42:30.072Z,4.10
2022-10-05T04:44:29.391Z,4.07
2022-10-05T04:46:19.460Z,3.87
2022-10-05T04:48:15.279Z,4.13
2022-10-05T04:50:07.715Z,3.47
2022-10-05T04:51:52.113Z,4.10
2022-10-05T04:53:17.336Z,4.83
2022-10-05T04:55:04.090Z,3.80
2022-10-05T04:56:54.784Z,4.43
2022-10-05T04:58:54.142Z,3.87
2022-10-05T05:00:31.625Z,4.33
2022-10-05T05:02:22.491Z,3.57
2022-10-05T05:04:12.995Z,4.20
2022-10-05T05:06:19.540Z,4.07
2022-10-05T05:08:02.106Z,4.47
2022-10-05T05:09:41.093Z,3.40
2022-10-05T05:11:27.182Z,4.00
2022-10-05T05:13:08.074Z,3.87
2022-10-05T05:14:42.322Z,3.80
2022-10-05T05:16:37.708Z,4.30
2022-10-05T05:18:23.630Z,3.80
2022-10-05T05:20:00.770Z,4.50
2022-10-05T05:21:31.008Z,4.33
2022-10-05T05:23:01.632Z,4.10
2022-10-05T05:24:48.436Z,4.07
2022-10-05T05:26:22.550Z,4.10
2022-10-05T05:27:58.335Z,4.30
2022-10-05T05:29:59.141Z,4.67
2022-10-05T05:31:31.381Z,4.73
2022-10-05T05:32:53.464Z,3.80
2022-10-05T05:34:27.436Z,4.17
2022-10-05T05:36:01.624Z,4.27
2022-10-05T05:37:32.733Z,4.10
2022-10-05T05:39:01.906Z,3.77
2022-10-05T05:40:53.141Z,3.83
2022-10-05T05:42:38.176Z,4.00
2022-10-05T05:44:21.008Z,3.60
2022-10-05T05:45:53.618Z,4.00
2022-10-05T05:47:30.760Z,4.10
2022-10-05T05:48:53.671Z,3.73
2022-10-05T05:50:24.886Z,4.00
2022-10-05T05:51:58.182Z,4.30
2022-10-05T05:53:35.222Z,3.43
2022-10-05T05:55:04.548Z,5.10
2022-10-05T05:56:42.654Z,3.80
2022-10-05T05:58:27.417Z,3.90
2022-10-05T05:59:52.291Z,4.20
2022-10-05T06:01:38.491Z,3.97
2022-10-05T06:03:13.341Z,4.70
2022-10-05T06:04:57.190Z,3.90
2022-10-05T06:06:25.487Z,4.10
2022-10-05T06:07:47.663Z,4.13
2022-10-05T06:09:28.736Z,5.00
2022-10-05T06:10:59.169Z,4.20
2022-10-05T06:12:40.619Z,4.00
2022-10-05T06:14:11.432Z,3.67
2022-10-05T06:15:52.425Z,4.00
2022-10-05T06:17:18.819Z,3.90
2022-10-05T06:18:44.971Z,3.87
2022-10-05T06:20:43.946Z,3.80
2022-10-05T06:22:15.079Z,3.60
2022-10-05T06:23:40.130Z,4.40
2022-10-05T06:25:15.009Z,4.20
2022-10-05T06:26:46.338Z,3.77
2022-10-05T06:28:13.255Z,3.57
2022-10-05T06:29:58.068Z,3.47
2022-10-05T06:32:01.753Z,3.80
2022-10-05T06:33:46.706Z,4.20
2022-10-05T06:35:17.821Z,3.97
2022-10-05T06:37:00.038Z,4.30
2022-10-05T06:38:54.622Z,4.67
2022-10-05T06:40:25.739Z,3.90
2022-10-05T06:42:06.735Z,3.77
2022-10-05T06:43:41.307Z,4.20
2022-10-05T06:45:09.311Z,3.77
2022-10-05T06:46:42.907Z,4.00
2022-10-05T06:49:01.455Z,4.03
2022-10-05T06:50:38.402Z,3.73
2022-10-05T06:52:12.345Z,4.70
2022-10-05T06:53:45.265Z,3.60
2022-10-05T06:55:31.886Z,4.57
2022-10-05T06:57:12.872Z,4.53
2022-10-05T06:59:13.564Z,4.30
2022-10-05T07:00:50.288Z,3.70
2022-10-05T07:02:39.514Z,3.93
2022-10-05T07:04:13.213Z,3.63
2022-10-05T07:06:03.263Z,5.27
2022-10-05T07:07:47.613Z,4.60
2022-10-05T07:09:39.604Z,4.00
2022-10-05T07:11:23.157Z,4.87
2022-10-05T07:12:54.136Z,4.70
2022-10-05T07:14:34.980Z,4.53
2022-10-05T07:16:08.185Z,4.40
2022-10-05T07:17:52.749Z,4.00
2022-10-05T07:19:49.347Z,3.67
2022-10-05T07:21:29.711Z,3.60
2022-10-05T07:23:00.262Z,3.90
2022-10-05T07:24:34.182Z,5.07
2022-10-05T07:26:18.832Z,4.40
2022-10-05T07:28:06.890Z,4.20
2022-10-05T07:29:40.145Z,4.30
2022-10-05T07:31:12.037Z,4.93
2022-10-05T07:32:55.390Z,4.40
2022-10-05T07:34:46.185Z,3.87
2022-10-05T07:36:37.317Z,3.53
2022-10-05T07:38:22.263Z,4.30
2022-10-05T07:40:00.570Z,4.93
2022-10-05T07:41:34.941Z,4.20
2022-10-05T07:43:18.370Z,4.07
2022-10-05T07:44:52.512Z,4.47
2022-10-05T07:46:32.368Z,4.43
2022-10-05T07:48:01.936Z,3.53
2022-10-05T07:49:24.331Z,4.50
2022-10-05T07:50:55.191Z,4.83
2022-10-05T07:52:36.671Z,4.10
2022-10-05T07:54:10.643Z,4.77
2022-10-05T07:55:38.346Z,4.30
2022-10-05T07:57:16.380Z,4.20
2022-10-05T07:58:45.094Z,4.20
2022-10-05T08:00:20.292Z,4.60
2022-10-05T08:01:48.450Z,4.50
2022-10-05T08:03:18.231Z,4.07
2022-10-05T08:04:59.558Z,4.47
2022-10-05T08:06:38.871Z,4.10
2022-10-05T08:08:14.409Z,5.63
2022-10-05T08:09:45.457Z,4.50
2022-10-05T08:11:13.529Z,4.70
2022-10-05T08:13:01.439Z,4.47
2022-10-05T08:14:45.014Z,5.30
2022-10-05T08:16:14.602Z,3.97
2022-10-05T08:18:03.792Z,4.43
2022-10-05T08:19:48.927Z,4.30
2022-10-05T08:21:14.090Z,4.23
2022-10-05T08:22:45.821Z,4.10
2022-10-05T08:24:23.114Z,4.97
2022-10-05T08:26:02.342Z,5.17
2022-10-05T08:27:43.281Z,4.30
2022-10-05T08:29:20.720Z,4.50
2022-10-05T08:30:57.104Z,4.47
2022-10-05T08:32:28.909Z,4.37
2022-10-05T08:33:53.825Z,5.00
2022-10-05T08:35:40.485Z,5.30
2022-10-05T08:37:04.896Z,5.60
2022-10-05T08:38:33.390Z,5.40
2022-10-05T08:40:17.336Z,5.13
2022-10-05T08:42:06.498Z,5.10
2022-10-05T08:44:27.161Z,5.70
2022-10-05T08:45:54.885Z,4.77
2022-10-05T08:47:40.514Z,4.90
2022-10-05T08:49:21.579Z,5.10
2022-10-05T08:51:11.206Z,4.70
2022-10-05T08:52:39.058Z,5.63
2022-10-05T08:54:26.910Z,5.20
2022-10-05T08:55:55.586Z,5.33
2022-10-05T08:57:31.934Z,5.30
2022-10-05T08:59:32.379Z,4.30
2022-10-05T09:01:06.214Z,4.63
2022-10-05T09:02:32.166Z,5.70
2022-10-05T09:04:16.710Z,5.13
2022-10-05T09:06:15.311Z,4.60
2022-10-05T09:07:43.401Z,4.87
2022-10-05T09:09:27.078Z,5.57
2022-10-05T09:10:57.936Z,4.67
2022-10-05T09:12:50.273Z,4.80
2022-10-05T09:14:34.138Z,5.40
2022-10-05T09:16:11.292Z,4.87
2022-10-05T09:18:07.577Z,4.40
2022-10-05T09:20:03.438Z,4.67
2022-10-05T09:21:49.207Z,5.07
2022-10-05T09:23:16.500Z,4.60
2022-10-05T09:24:58.540Z,4.57
2022-10-05T09:26:48.432Z,4.57
2022-10-05T09:28:37.727Z,5.03
2022-10-05T09:30:18.949Z,4.90
2022-10-05T09:32:07.018Z,4.77
2022-10-05T09:33:34.820Z,4.50
2022-10-05T09:35:28.717Z,4.57
2022-10-05T09:36:59.798Z,4.80
2022-10-05T09:38:56.818Z,4.87
2022-10-05T09:40:37.484Z,5.07
2022-10-05T09:42:18.144Z,4.90
2022-10-05T09:44:07.331Z,4.80
2022-10-05T09:45:41.380Z,4.50
2022-10-05T09:47:18.408Z,4.60
2022-10-05T09:49:18.034Z,5.00
2022-10-05T09:50:52.457Z,4.60
2022-10-05T09:52:36.154Z,4.97
2022-10-05T09:54:31.478Z,5.30
2022-10-05T09:56:21.126Z,5.80
2022-10-05T09:57:55.777Z,5.00
2022-10-05T09:59:35.035Z,5.10
2022-10-05T10:01:32.799Z,5.37
2022-10-05T10:03:21.000Z,5.07
2022-10-05T10:05:09.058Z,5.17
2022-10-05T10:07:08.208Z,5.07
2022-10-05T10:08:41.885Z,4.43
2022-10-05T10:10:34.111Z,5.00
2022-10-05T10:12:20.909Z,4.47
2022-10-05T10:13:46.662Z,4.17
2022-10-05T10:15:32.769Z,4.20
2022-10-05T10:17:07.559Z,3.60
2022-10-05T10:18:56.961Z,3.87
2022-10-05T10:20:35.333Z,4.50
2022-10-05T10:22:25.017Z,4.60
2022-10-05T10:24:14.686Z,4.10
2022-10-05T10:25:49.845Z,5.03
2022-10-05T10:27:23.539Z,4.50
2022-10-05T10:28:45.509Z,5.33
2022-10-05T10:30:34.419Z,4.53
2022-10-05T10:32:01.630Z,4.63
2022-10-05T10:33:45.603Z,5.00
2022-10-05T10:35:31.501Z,4.50
2022-10-05T10:37:18.559Z,4.67
2022-10-05T10:39:02.143Z,5.00
2022-10-05T10:40:34.996Z,5.30
2022-10-05T10:42:13.646Z,4.50
2022-10-05T10:44:02.523Z,5.30
2022-10-05T10:45:44.066Z,4.63
2022-10-05T10:47:14.869Z,5.53
2022-10-05T10:48:57.432Z,4.70
2022-10-05T10:50:44.369Z,4.70
2022-10-05T10:52:22.498Z,5.00
2022-10-05T10:54:07.824Z,4.20
2022-10-05T10:55:38.859Z,5.13
2022-10-05T10:57:06.077Z,4.67
2022-10-05T10:58:34.879Z,4.70
2022-10-05T11:00:22.598Z,4.70
2022-10-05T11:02:19.007Z,4.47
2022-10-05T11:03:52.986Z,4.60
2022-10-05T11:05:26.521Z,4.60
2022-10-05T11:07:06.733Z,5.03
2022-10-05T11:09:02.756Z,4.37
2022-10-05T11:10:42.901Z,4.53
2022-10-05T11:12:10.810Z,5.20
2022-10-05T11:13:56.287Z,4.57
2022-10-05T11:15:52.148Z,4.40
2022-10-05T11:17:31.610Z,4.50
2022-10-05T11:19:40.208Z,4.07
2022-10-05T11:21:30.348Z,4.20
2022-10-05T11:23:14.252Z,4.73
2022-10-05T11:25:00.592Z,4.60
2022-10-05T11:26:56.401Z,4.87
2022-10-05T11:28:46.340Z,4.40
2022-10-05T11:30:36.050Z,4.30
2022-10-05T11:32:10.154Z,4.00
2022-10-05T11:34:10.275Z,4.60
2022-10-05T11:35:47.624Z,4.47
2022-10-05T11:37:36.625Z,5.07
2022-10-05T11:39:16.487Z,4.97
2022-10-05T11:41:15.828Z,5.10
2022-10-05T11:42:59.737Z,5.30
2022-10-05T11:44:34.065Z,4.90
2022-10-05T11:46:36.230Z,3.93
2022-10-05T11:48:00.917Z,3.90
2022-10-05T11:49:46.928Z,4.70
2022-10-05T11:51:12.183Z,5.90
2022-10-05T11:52:44.885Z,5.17
2022-10-05T11:54:09.873Z,4.30
2022-10-05T11:56:05.408Z,4.23
2022-10-05T11:57:37.907Z,4.77
2022-10-05T11:59:13.884Z,4.60
2022-10-05T12:01:37.587Z,3.80
2022-10-05T12:03:17.924Z,4.33
2022-10-05T12:04:47.927Z,4.17
2022-10-05T12:06:23.378Z,3.63
2022-10-05T12:08:09.020Z,3.73
2022-10-05T12:09:30.998Z,3.83
2022-10-05T12:11:02.006Z,3.57
2022-10-05T12:12:35.441Z,3.80
2022-10-05T12:14:13.492Z,4.43
2022-10-05T12:15:54.565Z,3.93
2022-10-05T12:17:46.318Z,4.13
2022-10-05T12:19:31.648Z,4.37
2022-10-05T12:21:01.687Z,4.43
2022-10-05T12:22:46.713Z,4.53
2022-10-05T12:24:22.181Z,4.40
2022-10-05T12:25:50.946Z,4.30
2022-10-05T12:27:20.498Z,3.73
2022-10-05T12:28:57.636Z,3.97
2022-10-05T12:30:50.624Z,4.53
2022-10-05T12:32:24.062Z,4.00
2022-10-05T12:34:15.114Z,3.93
2022-10-05T12:36:19.425Z,4.20
2022-10-05T12:37:54.117Z,3.67
2022-10-05T12:39:29.570Z,4.20
2022-10-05T12:41:07.856Z,3.43
2022-10-05T12:42:39.414Z,3.43
2022-10-05T12:44:22.210Z,3.70
2022-10-05T12:45:50.246Z,4.20
2022-10-05T12:47:29.744Z,3.90
2022-10-05T12:49:09.298Z,3.80
2022-10-05T12:50:38.251Z,3.83
2022-10-05T12:52:04.248Z,3.90
2022-10-05T12:53:57.125Z,3.50
2022-10-05T12:55:40.538Z,3.63
2022-10-05T12:57:29.193Z,3.80
2022-10-05T12:58:58.665Z,4.13
2022-10-05T13:00:23.208Z,3.23
2022-10-05T13:02:11.362Z,3.93
2022-10-05T13:04:18.450Z,4.50
2022-10-05T13:06:15.536Z,3.90
2022-10-05T13:08:12.892Z,3.97
2022-10-05T13:09:34.911Z,3.93
2022-10-05T13:11:12.738Z,3.43
2022-10-05T13:12:42.962Z,3.57
2022-10-05T13:14:23.486Z,3.80
2022-10-05T13:16:11.256Z,3.90
2022-10-05T13:17:45.202Z,4.20
2022-10-05T13:19:31.827Z,4.40
2022-10-05T13:21:18.725Z,4.03
2022-10-05T13:22:46.411Z,4.00
2022-10-05T13:24:26.739Z,4.50
2022-10-05T13:26:07.856Z,3.93
2022-10-05T13:27:35.555Z,3.77
2022-10-05T13:29:16.221Z,4.20
2022-10-05T13:30:44.427Z,4.63
2022-10-05T13:32:16.814Z,4.00
2022-10-05T13:33:38.827Z,4.20
2022-10-05T13:35:22.340Z,4.03
2022-10-05T13:37:04.666Z,4.70
2022-10-05T13:38:46.344Z,4.00
2022-10-05T13:40:20.150Z,3.90
2022-10-05T13:42:17.887Z,4.50
2022-10-05T13:44:12.212Z,4.00
2022-10-05T13:45:52.656Z,3.97
2022-10-05T13:47:34.187Z,3.83
2022-10-05T13:49:44.486Z,3.97
2022-10-05T13:51:29.571Z,4.60
2022-10-05T13:53:25.094Z,4.60
2022-10-05T13:55:00.127Z,4.80
2022-10-05T13:56:31.767Z,4.43
2022-10-05T13:58:25.667Z,4.03
2022-10-05T13:59:55.525Z,4.00
2022-10-05T14:01:28.830Z,3.47
2022-10-05T14:02:53.918Z,4.97
2022-10-05T14:04:24.774Z,3.80
2022-10-05T14:05:56.372Z,5.70
2022-10-05T14:07:39.267Z,5.23
2022-10-05T14:09:01.605Z,6.43
2022-10-05T14:10:30.859Z,4.60
2022-10-05T14:12:05.135Z,4.23
2022-10-05T14:13:47.580Z,3.90
2022-10-05T14:15:20.866Z,4.50
2022-10-05T14:16:57.682Z,4.90
2022-10-05T14:18:28.489Z,4.57
2022-10-05T14:19:54.376Z,4.43
2022-10-05T14:21:17.014Z,4.60
2022-10-05T14:22:43.095Z,4.00
2022-10-05T14:24:45.162Z,3.80
2022-10-05T14:26:32.610Z,2.93
2022-10-05T14:27:58.614Z,3.57
2022-10-05T14:29:35.762Z,3.90
2022-10-05T14:31:13.273Z,3.33
2022-10-05T14:33:05.531Z,3.50
2022-10-05T14:34:30.597Z,3.90
2022-10-05T14:35:58.122Z,3.27
2022-10-05T14:37:26.179Z,3.73
2022-10-05T14:39:00.682Z,3.83
2022-10-05T14:40:22.898Z,4.00
2022-10-05T14:41:49.385Z,3.53
2022-10-05T14:43:14.554Z,4.27
2022-10-05T14:44:36.726Z,3.90
2022-10-05T14:46:23.273Z,4.20
2022-10-05T14:48:11.447Z,3.60
2022-10-05T14:49:37.006Z,3.50
2022-10-05T14:51:03.647Z,3.40
2022-10-05T14:52:32.746Z,3.67
2022-10-05T14:54:00.501Z,4.23
2022-10-05T14:55:34.643Z,3.60
2022-10-05T14:57:48.761Z,3.90
2022-10-05T14:59:16.327Z,5.53
2022-10-05T15:00:58.574Z,4.30
2022-10-05T15:02:45.040Z,4.37
2022-10-05T15:04:42.917Z,4.10
2022-10-05T15:06:13.924Z,4.17
2022-10-05T15:07:42.563Z,4.37
2022-10-05T15:09:17.599Z,3.90
2022-10-05T15:10:49.995Z,3.73
2022-10-05T15:12:18.841Z,4.33
2022-10-05T15:13:43.596Z,4.40
2022-10-05T15:15:37.091Z,3.83
2022-10-05T15:17:03.817Z,3.47
2022-10-05T15:19:17.907Z,3.93
2022-10-05T15:20:54.585Z,3.80
2022-10-05T15:22:41.140Z,4.00
2022-10-05T15:24:09.316Z,3.93
2022-10-05T15:25:44.714Z,4.30
2022-10-05T15:27:20.710Z,3.87
2022-10-05T15:28:48.341Z,3.13
2022-10-05T15:30:14.099Z,4.37
2022-10-05T15:31:39.780Z,4.20
2022-10-05T15:33:01.805Z,4.27
2022-10-05T15:34:30.396Z,4.20
2022-10-05T15:36:08.172Z,3.60
2022-10-05T15:38:02.031Z,3.70
2022-10-05T15:39:56.221Z,4.70
2022-10-05T15:41:23.963Z,4.43
2022-10-05T15:42:46.065Z,3.90
2022-10-05T15:44:46.671Z,4.30
2022-10-05T15:46:34.394Z,4.20
2022-10-05T15:48:00.895Z,3.87
2022-10-05T15:49:51.035Z,4.20
2022-10-05T15:51:52.310Z,4.10
2022-10-05T15:53:46.310Z,4.30
2022-10-05T15:55:23.200Z,4.27
2022-10-05T15:56:57.375Z,4.40
2022-10-05T15:58:46.612Z,3.93
2022-10-05T16:00:19.734Z,4.20
2022-10-05T16:01:53.027Z,4.77
2022-10-05T16:03:26.511Z,3.83
2022-10-05T16:05:12.674Z,4.10
2022-10-05T16:07:05.530Z,3.87
2022-10-05T16:08:51.636Z,4.27
2022-10-05T16:10:24.870Z,3.97
2022-10-05T16:12:05.080Z,4.50
2022-10-05T16:13:43.472Z,4.23
2022-10-05T16:15:16.219Z,4.70
2022-10-05T16:17:20.654Z,4.83
2022-10-05T16:19:09.755Z,4.50
2022-10-05T16:20:35.657Z,4.30
2022-10-05T16:22:21.698Z,4.30
2022-10-05T16:24:18.286Z,4.53
2022-10-05T16:26:11.585Z,4.90
2022-10-05T16:27:36.515Z,4.03
2022-10-05T16:29:24.741Z,4.73
2022-10-05T16:30:58.805Z,4.63
2022-10-05T16:32:25.024Z,4.53
2022-10-05T16:33:52.831Z,4.83
2022-10-05T16:35:30.228Z,5.00
2022-10-05T16:37:04.326Z,4.93
2022-10-05T16:38:47.941Z,4.50
2022-10-05T16:40:36.288Z,5.97
2022-10-05T16:42:01.278Z,5.37
2022-10-05T16:43:28.958Z,5.00
2022-10-05T16:45:31.266Z,5.50
2022-10-05T16:47:16.598Z,4.90
2022-10-05T16:49:16.749Z,5.97
2022-10-05T16:51:07.572Z,6.17
2022-10-05T16:52:33.032Z,6.30
2022-10-05T16:54:27.144Z,5.53
2022-10-05T16:55:54.878Z,5.57
2022-10-05T16:57:19.762Z,5.63
2022-10-05T16:59:04.262Z,6.80
2022-10-05T17:00:51.997Z,6.40
2022-10-05T17:02:29.078Z,5.73
2022-10-05T17:04:15.261Z,5.90
2022-10-05T17:05:57.889Z,5.30
2022-10-05T17:07:42.002Z,6.20
2022-10-05T17:09:15.989Z,4.53
2022-10-05T17:10:50.276Z,5.90
2022-10-05T17:12:45.481Z,5.53
2022-10-05T17:14:24.929Z,6.30
2022-10-05T17:16:04.168Z,5.80
2022-10-05T17:17:55.590Z,6.47
2022-10-05T17:19:20.360Z,6.30
2022-10-05T17:20:51.356Z,6.23
2022-10-05T17:22:28.987Z,6.60
2022-10-05T17:23:55.133Z,6.33
2022-10-05T17:25:26.571Z,6.80
2022-10-05T17:27:22.707Z,6.60
2022-10-05T17:29:12.761Z,5.67
2022-10-05T17:30:45.490Z,6.93
2022-10-05T17:32:16.781Z,6.33
2022-10-05T17:35:04.111Z,6.80
2022-10-05T17:37:00.109Z,6.10
2022-10-05T17:38:23.430Z,6.00
2022-10-05T17:39:52.468Z,6.40
2022-10-05T17:41:23.517Z,5.90
2022-10-05T17:42:47.276Z,7.40
2022-10-05T17:44:20.642Z,5.70
2022-10-05T17:45:42.675Z,5.90
2022-10-05T17:47:11.150Z,5.57
2022-10-05T17:48:54.271Z,5.47
2022-10-05T17:50:59.111Z,5.47
2022-10-05T17:52:43.789Z,5.30
2022-10-05T17:54:40.874Z,6.13
2022-10-05T17:56:05.042Z,6.20
2022-10-05T17:57:28.367Z,6.03
2022-10-05T17:58:54.550Z,6.60
2022-10-05T18:00:25.546Z,5.70
2022-10-05T18:02:13.625Z,6.33
2022-10-05T18:03:39.395Z,6.40
2022-10-05T18:05:04.424Z,6.40
2022-10-05T18:06:28.254Z,6.20
2022-10-05T18:08:12.988Z,6.17
2022-10-05T18:09:37.520Z,6.20
2022-10-05T18:11:08.784Z,5.83
2022-10-05T18:12:37.054Z,6.47
2022-10-05T18:14:24.697Z,6.50
2022-10-05T18:15:49.411Z,6.40
2022-10-05T18:17:12.822Z,6.53
2022-10-05T18:18:43.819Z,6.97
2022-10-05T18:20:25.411Z,6.93
2022-10-05T18:22:27.718Z,6.93
2022-10-05T18:23:52.659Z,6.10
2022-10-05T18:25:29.511Z,6.03
2022-10-05T18:27:38.291Z,6.00
2022-10-05T18:29:14.030Z,6.20
2022-10-05T18:30:53.209Z,7.17
2022-10-05T18:32:45.338Z,7.47
2022-10-05T18:34:13.221Z,6.40
2022-10-05T18:36:18.638Z,6.30
2022-10-05T18:37:46.441Z,6.47
2022-10-05T18:39:23.218Z,6.30
2022-10-05T18:41:13.473Z,6.23
2022-10-05T18:42:49.530Z,7.10
2022-10-05T18:44:14.273Z,7.00
2022-10-05T18:45:50.324Z,6.50
2022-10-05T18:47:33.592Z,6.13
2022-10-05T18:49:04.775Z,6.63
2022-10-05T18:50:47.927Z,6.90
2022-10-05T18:52:29.959Z,7.70
2022-10-05T18:53:58.057Z,7.70
2022-10-05T18:55:43.900Z,7.80
2022-10-05T18:57:50.814Z,7.67
2022-10-05T18:59:48.551Z,7.10
2022-10-05T19:01:40.461Z,7.40
2022-10-05T19:03:19.627Z,7.67
2022-10-05T19:04:47.447Z,8.07
2022-10-05T19:06:27.719Z,6.37
2022-10-05T19:08:10.642Z,7.70
2022-10-05T19:09:48.774Z,6.90
2022-10-05T19:11:28.425Z,6.20
2022-10-05T19:12:53.369Z,5.87
2022-10-05T19:14:40.522Z,6.87
2022-10-05T19:16:08.411Z,6.57
2022-10-05T19:17:49.108Z,6.53
2022-10-05T19:19:46.591Z,6.40
2022-10-05T19:21:37.887Z,7.10
2022-10-05T19:23:29.045Z,6.30
2022-10-05T19:25:18.623Z,6.43
2022-10-05T19:27:03.392Z,7.27
2022-10-05T19:28:37.167Z,6.20
2022-10-05T19:30:37.496Z,6.10
2022-10-05T19:32:37.227Z,5.87
2022-10-05T19:34:19.042Z,5.97
2022-10-05T19:36:10.513Z,6.33
2022-10-05T19:37:47.917Z,5.87
2022-10-05T19:39:16.502Z,5.87
2022-10-05T19:41:04.737Z,6.10
2022-10-05T19:42:45.159Z,5.60
2022-10-05T19:44:18.967Z,6.80
2022-10-05T19:45:54.792Z,6.40
2022-10-05T19:47:45.219Z,6.13
2022-10-05T19:49:10.775Z,5.20
2022-10-05T19:50:35.478Z,5.63
2022-10-05T19:51:58.390Z,5.37
2022-10-05T19:53:49.975Z,5.33
2022-10-05T19:55:16.003Z,5.43
2022-10-05T19:56:52.861Z,5.00
2022-10-05T19:58:27.385Z,4.97
2022-10-05T19:59:49.929Z,4.50
2022-10-05T20:01:21.721Z,5.03
2022-10-05T20:02:44.067Z,4.90
2022-10-05T20:04:07.602Z,5.57
2022-10-05T20:05:29.788Z,5.27
2022-10-05T20:06:51.900Z,4.50
2022-10-05T20:08:19.303Z,4.43
2022-10-05T20:10:13.836Z,4.40
2022-10-05T20:11:49.219Z,4.73
2022-10-05T20:13:22.820Z,4.73
2022-10-05T20:15:03.952Z,4.37
2022-10-05T20:19:06.685Z,4.10
2022-10-05T20:20:35.014Z,4.10
2022-10-05T20:21:59.172Z,4.43
2022-10-05T20:23:25.048Z,4.03
2022-10-05T20:24:52.785Z,4.37
2022-10-05T20:26:56.848Z,4.70
2022-10-05T20:28:32.383Z,4.40
2022-10-05T20:29:54.884Z,4.77
2022-10-05T20:31:19.952Z,4.30
2022-10-05T20:32:42.208Z,4.30
2022-10-05T20:34:04.529Z,4.70
2022-10-05T20:35:30.391Z,4.70
2022-10-05T20:36:52.659Z,3.73
2022-10-05T20:38:14.796Z,4.33
2022-10-05T20:39:37.074Z,4.00
2022-10-05T20:40:59.182Z,4.20
2022-10-05T20:42:22.958Z,3.80
2022-10-05T20:43:45.067Z,4.50
2022-10-05T20:45:07.654Z,4.50
2022-10-05T20:46:30.998Z,4.27
2022-10-05T20:47:53.326Z,4.50
2022-10-05T20:49:15.507Z,4.10
2022-10-05T20:50:37.977Z,4.37
2022-10-05T20:52:00.172Z,4.50
2022-10-05T20:53:22.382Z,4.50
2022-10-05T20:56:11.725Z,4.10
2022-10-05T20:57:33.776Z,4.50
2022-10-05T20:58:56.063Z,4.53
2022-10-05T21:00:18.158Z,4.73
2022-10-05T21:01:44.250Z,4.47
2022-10-05T21:03:06.329Z,4.60
2022-10-05T21:04:40.310Z,4.30
2022-10-05T21:06:03.233Z,4.40
2022-10-05T21:07:25.705Z,4.50
2022-10-05T21:08:50.893Z,4.27
2022-10-05T21:10:14.234Z,4.30
2022-10-05T21:11:36.267Z,4.80
2022-10-05T21:12:58.274Z,4.17
2022-10-05T21:14:20.887Z,4.57
2022-10-05T21:15:43.043Z,5.03
2022-10-05T21:17:06.729Z,3.80
2022-10-05T21:18:28.981Z,4.67
2022-10-05T21:19:52.623Z,3.87
2022-10-05T21:21:18.729Z,5.27
2022-10-05T21:22:41.155Z,4.70
2022-10-05T21:24:04.721Z,4.83
2022-10-05T21:25:27.008Z,4.53
2022-10-05T21:26:49.042Z,4.60
2022-10-05T21:28:11.110Z,4.97
2022-10-05T21:29:34.436Z,5.77
2022-10-05T21:30:56.555Z,4.80
2022-10-05T21:32:18.599Z,4.70
2022-10-05T21:33:40.700Z,4.93
2022-10-05T21:35:02.843Z,5.17
2022-10-05T21:36:25.000Z,4.80
2022-10-05T21:37:47.099Z,4.60
2022-10-05T21:39:09.201Z,4.40
2022-10-05T21:40:31.269Z,5.10
2022-10-05T21:41:53.350Z,5.37
2022-10-05T21:43:15.478Z,5.00
2022-10-05T21:44:37.543Z,5.50
2022-10-05T21:46:00.998Z,5.03
2022-10-05T21:47:23.320Z,5.27